Time;durP1;ratioP1;P1;durP2;ratioP2;P2;SDS_P1;SDS_P2;PMS_P1;PMS_P2;Temp;Humidity;BMP_temperature;BMP_pressure;BME280_temperature;BME280_humidity;BME280_pressure;Samples;Min_cycle;Max_cycle;Signal;HPM_P1;HPM_P2
2023/09/12 00:00:17;;;;;;;2.58;2.38;;;;;;;;;;6134396;23;20021;-75
2023/09/12 00:02:43;;;;;;;2.78;2.58;;;;;;;;;;6134162;23;20038;-75
2023/09/12 00:05:09;;;;;;;2.80;2.60;;;;;;;;;;6134358;23;20032;-75
2023/09/12 00:07:36;;;;;;;2.50;2.30;;;29.00;57.10;;;;;;6134434;23;19994;-75
2023/09/12 00:10:02;;;;;;;2.90;2.70;;;;;;;;;;6134886;23;20002;-73
2023/09/12 00:12:28;;;;;;;2.70;2.50;;;;;;;;;;6124712;23;20438;-73
2023/09/12 00:14:54;;;;;;;2.75;2.55;;;;;;;;;;6134312;23;20499;-73
2023/09/12 00:17:20;;;;;;;2.47;2.28;;;;;;;;;;6134344;23;20027;-73
2023/09/12 00:19:47;;;;;;;3.50;2.72;;;;;;;;;;6124888;23;20006;-73
2023/09/12 00:22:13;;;;;;;2.90;2.70;;;;;;;;;;6124911;23;20339;-74
2023/09/12 00:24:39;;;;;;;2.70;2.38;;;;;;;;;;6134264;23;19998;-73
2023/09/12 00:27:05;;;;;;;2.40;2.20;;;;;;;;;;6124954;23;20303;-72
2023/09/12 00:29:32;;;;;;;2.58;2.42;;;;;;;;;;6134348;23;20001;-73
2023/09/12 00:31:58;;;;;;;2.60;2.40;;;;;;;;;;6124921;23;20014;-73
2023/09/12 00:34:24;;;;;;;2.60;2.40;;;;;;;;;;6134328;23;20022;-73
2023/09/12 00:36:50;;;;;;;2.28;2.17;;;;;;;;;;6134329;23;20006;-73
2023/09/12 00:39:16;;;;;;;2.58;2.38;;;;;;;;;;6134879;23;20073;-73
2023/09/12 00:41:42;;;;;;;2.60;2.40;;;;;;;;;;6124783;23;20073;-73
2023/09/12 00:44:08;;;;;;;2.50;2.30;;;;;;;;;;6134195;23;20073;-73
2023/09/12 00:46:36;;;;;;;2.67;2.47;;;28.80;60.20;;;;;;6134077;23;20013;-73
2023/09/12 00:49:03;;;;;;;2.70;2.50;;;;;;;;;;6124594;23;20333;-73
2023/09/12 00:51:33;;;;;;;2.40;2.20;;;28.70;54.90;;;;;;6134114;23;20148;-75
2023/09/12 00:53:59;;;;;;;2.42;2.22;;;;;;;;;;6124584;23;20006;-75
2023/09/12 00:56:25;;;;;;;2.58;2.38;;;;;;;;;;6135314;23;20468;-75
2023/09/12 00:58:51;;;;;;;2.40;2.20;;;;;;;;;;6136141;23;20002;-75
2023/09/12 01:01:18;;;;;;;2.72;2.53;;;28.70;60.50;;;;;;6126326;23;20036;-75
2023/09/12 01:03:44;;;;;;;2.50;2.30;;;;;;;;;;6126716;23;20010;-75
2023/09/12 01:06:11;;;;;;;2.10;1.90;;;28.70;59.40;;;;;;6126749;23;20061;-75
2023/09/12 01:08:38;;;;;;;2.75;2.55;;;;;;;;;;6136548;23;20006;-73
2023/09/12 01:11:04;;;;;;;2.88;2.15;;;;;;;;;;6126167;23;20006;-73
2023/09/12 01:13:31;;;;;;;2.58;2.38;;;;;;;;;;6125992;23;20059;-73
2023/09/12 01:15:57;;;;;;;2.78;2.45;;;;;;;;;;6126461;23;20008;-73
2023/09/12 01:18:24;;;;;;;2.90;2.70;;;;;;;;;;6126352;23;20005;-73
2023/09/12 01:21:18;;;;;;;2.63;2.40;;;28.60;55.30;;;;;;6126277;23;20002;-73
2023/09/12 01:24:27;;;;;;;2.38;2.20;;;28.60;55.10;;;;;;6125961;23;20004;-73
2023/09/12 01:27:10;;;;;;;2.95;2.58;;;28.60;55.30;;;;;;6135888;23;20441;-73
2023/09/12 01:29:36;;;;;;;2.20;2.00;;;;;;;;;;6135668;23;20053;-73
2023/09/12 01:32:03;;;;;;;2.55;2.35;;;28.50;60.80;;;;;;6135747;23;20006;-73
2023/09/12 01:34:29;;;;;;;2.92;2.60;;;;;;;;;;6135865;23;20014;-73
2023/09/12 01:36:55;;;;;;;2.10;2.00;;;;;;;;;;6136396;23;19998;-74
2023/09/12 01:39:21;;;;;;;2.72;2.53;;;;;;;;;;6135716;23;19998;-72
2023/09/12 01:41:49;;;;;;;2.35;2.15;;;28.50;60.60;;;;;;6135692;23;20384;-73
2023/09/12 01:44:15;;;;;;;2.38;2.17;;;;;;;;;;6135791;23;20381;-73
2023/09/12 01:46:42;;;;;;;2.60;2.40;;;28.50;60.70;;;;;;6135699;23;19998;-73
2023/09/12 01:49:09;;;;;;;2.45;2.25;;;28.50;60.90;;;;;;6135859;23;19998;-75
2023/09/12 01:51:36;;;;;;;3.13;2.22;;;;;;;;;;6135616;23;20402;-75
2023/09/12 01:54:03;;;;;;;2.33;2.10;;;28.50;60.60;;;;;;6136012;23;20028;-75
2023/09/12 01:56:29;;;;;;;2.53;2.33;;;;;;;;;;6135529;23;20033;-74
2023/09/12 01:58:55;;;;;;;2.92;2.22;;;;;;;;;;6135463;23;20021;-75
2023/09/12 02:01:22;;;;;;;3.03;2.72;;;;;;;;;;6125745;23;20002;-75
2023/09/12 02:03:48;;;;;;;2.60;2.10;;;;;;;;;;6125762;23;20006;-74
2023/09/12 02:06:14;;;;;;;2.45;2.25;;;;;;;;;;6136063;23;19998;-73
2023/09/12 02:08:40;;;;;;;2.55;2.22;;;;;;;;;;6134891;23;20009;-73
2023/09/12 02:11:07;;;;;;;2.50;2.30;;;;;;;;;;6135508;23;20438;-73
2023/09/12 02:13:33;;;;;;;2.85;2.30;;;;;;;;;;6135416;23;20013;-73
2023/09/12 02:16:00;;;;;;;2.30;2.05;;;28.30;58.70;;;;;;6135550;23;20092;-75
2023/09/12 02:18:26;;;;;;;2.00;1.90;;;;;;;;;;6135581;23;19998;-74
2023/09/12 02:20:52;;;;;;;2.50;2.30;;;;;;;;;;6125832;23;20002;-75
2023/09/12 02:23:19;;;;;;;2.20;2.00;;;;;;;;;;6125467;23;20018;-75
2023/09/12 02:25:45;;;;;;;2.15;1.95;;;;;;;;;;6125939;23;20036;-75
2023/09/12 02:28:11;;;;;;;2.35;2.15;;;;;;;;;;6125836;23;20032;-75
2023/09/12 02:30:40;;;;;;;2.03;1.92;;;28.30;59.40;;;;;;6125574;23;20024;-75
2023/09/12 02:33:06;;;;;;;2.13;2.00;;;;;;;;;;6125985;23;20006;-73
2023/09/12 02:35:33;;;;;;;2.22;2.03;;;;;;;;;;6125915;23;20077;-73
2023/09/12 02:37:59;;;;;;;2.42;2.20;;;;;;;;;;6125750;23;20546;-73
2023/09/12 02:40:26;;;;;;;2.42;2.15;;;;;;;;;;6125288;23;20044;-73
2023/09/12 02:42:52;;;;;;;2.65;2.15;;;;;;;;;;6125332;23;20002;-73
2023/09/12 02:45:19;;;;;;;2.58;2.38;;;;;;;;;;6125367;23;20009;-75
2023/09/12 02:47:46;;;;;;;2.10;1.90;;;;;;;;;;6125734;23;20002;-74
2023/09/12 02:50:12;;;;;;;2.17;1.92;;;;;;;;;;6125620;23;20034;-75
2023/09/12 02:52:39;;;;;;;2.28;2.08;;;;;;;;;;6125435;23;20017;-75
2023/09/12 02:55:05;;;;;;;2.35;2.15;;;;;;;;;;6125581;23;20093;-75
2023/09/12 02:57:32;;;;;;;2.28;2.03;;;;;;;;;;6125141;23;20006;-74
2023/09/12 02:59:58;;;;;;;2.25;1.90;;;28.10;60.20;;;;;;6134842;23;20074;-74
2023/09/12 03:02:24;;;;;;;2.15;1.95;;;;;;;;;;6135283;23;20437;-73
2023/09/12 03:04:50;;;;;;;2.10;2.00;;;;;;;;;;6134988;23;20094;-73
2023/09/12 03:07:16;;;;;;;2.10;1.88;;;;;;;;;;6134983;23;20445;-73
2023/09/12 03:09:42;;;;;;;2.30;2.08;;;;;;;;;;6135029;23;19998;-73
2023/09/12 03:12:08;;;;;;;2.65;2.33;;;;;;;;;;6134761;23;20010;-73
2023/09/12 03:14:34;;;;;;;1.73;1.63;;;;;;;;;;6134923;23;20045;-75
2023/09/12 03:17:00;;;;;;;1.90;1.80;;;;;;;;;;6134895;23;20497;-75
2023/09/12 03:19:26;;;;;;;1.98;1.88;;;;;;;;;;6134683;23;20005;-75
2023/09/12 03:21:52;;;;;;;1.90;1.70;;;;;;;;;;6134895;23;20067;-75
2023/09/12 03:24:18;;;;;;;2.33;2.13;;;;;;;;;;6134729;23;20006;-75
2023/09/12 03:26:44;;;;;;;2.08;1.90;;;;;;;;;;6134782;23;20321;-76
2023/09/12 03:29:10;;;;;;;2.25;1.80;;;;;;;;;;6134706;23;20005;-74
2023/09/12 03:31:36;;;;;;;2.47;2.08;;;;;;;;;;6135307;23;19994;-76
2023/09/12 03:34:02;;;;;;;1.80;1.70;;;;;;;;;;6135192;23;20097;-76
2023/09/12 03:36:28;;;;;;;2.10;2.00;;;;;;;;;;6135084;23;20005;-74
2023/09/12 03:38:54;;;;;;;1.98;1.77;;;;;;;;;;6134574;23;20052;-74
2023/09/12 03:41:25;;;;;;;1.92;1.75;;;;;;;;;;6125157;23;20425;-75
2023/09/12 03:43:50;;;;;;;;;;;27.90;56.30;;;;;;6135523;23;19994;-75
2023/09/12 03:46:16;;;;;;;1.80;1.70;;;;;;;;;;6135437;23;20232;-75
2023/09/12 03:48:42;;;;;;;2.38;2.17;;;;;;;;;;6136846;23;20009;-74
2023/09/12 03:51:09;;;;;;;1.80;1.70;;;;;;;;;;6124567;23;20029;-76
2023/09/12 03:53:35;;;;;;;1.98;1.77;;;;;;;;;;6124843;23;20414;-73
2023/09/12 03:56:02;;;;;;;2.25;1.80;;;;;;;;;;6124581;23;20401;-73
2023/09/12 03:58:28;;;;;;;2.25;2.05;;;;;;;;;;6125181;23;20013;-73
2023/09/12 04:00:55;;;;;;;1.90;1.80;;;;;;;;;;6125049;23;20002;-74
2023/09/12 04:03:21;;;;;;;3.75;2.13;;;;;;;;;;6124101;23;20071;-74
2023/09/12 04:05:48;;;;;;;2.78;2.08;;;;;;;;;;6124876;23;20005;-73
2023/09/12 04:08:15;;;;;;;4.13;2.22;;;;;;;;;;6124966;23;20002;-73
2023/09/12 04:10:41;;;;;;;2.72;2.20;;;;;;;;;;6124967;23;20025;-73
2023/09/12 04:13:07;;;;;;;2.55;2.35;;;;;;;;;;6134280;23;20017;-73
2023/09/12 04:15:33;;;;;;;2.40;2.20;;;;;;;;;;6134348;23;19997;-73
2023/09/12 04:17:59;;;;;;;2.38;2.17;;;;;;;;;;6134510;23;20057;-73
2023/09/12 04:20:25;;;;;;;2.30;2.10;;;;;;;;;;6134276;23;19994;-74
2023/09/12 04:22:51;;;;;;;2.30;2.10;;;;;;;;;;6134253;23;20480;-74
2023/09/12 04:25:19;;;;;;;3.55;2.03;;;;;;;;;;6134264;23;20466;-74
2023/09/12 04:27:46;;;;;;;1.90;1.80;;;;;;;;;;6134922;23;20453;-74
2023/09/12 04:30:12;;;;;;;3.63;1.95;;;;;;;;;;6133880;23;19994;-74
2023/09/12 04:32:38;;;;;;;3.47;2.20;;;;;;;;;;6134376;23;20068;-74
2023/09/12 04:35:04;;;;;;;1.98;1.75;;;;;;;;;;6134393;23;20480;-74
2023/09/12 04:37:30;;;;;;;2.25;1.85;;;;;;;;;;6134242;23;20068;-74
2023/09/12 04:39:56;;;;;;;2.20;1.75;;;;;;;;;;6134478;23;20298;-74
2023/09/12 04:42:23;;;;;;;2.33;1.80;;;;;;;;;;6134331;23;20001;-74
2023/09/12 04:44:49;;;;;;;2.05;1.90;;;;;;;;;;6124870;23;20369;-74
2023/09/12 04:47:15;;;;;;;1.90;1.70;;;;;;;;;;6134158;23;19998;-74
2023/09/12 04:49:41;;;;;;;1.98;1.88;;;;;;;;;;6134181;23;20315;-74
2023/09/12 04:52:07;;;;;;;2.22;1.90;;;;;;;;;;6134113;23;20017;-75
2023/09/12 04:54:33;;;;;;;2.10;2.00;;;;;;;;;;6098272;23;20037;-74
2023/09/12 04:56:59;;;;;;;1.75;1.65;;;;;;;;;;6134670;23;20002;-74
2023/09/12 04:59:25;;;;;;;2.25;1.85;;;;;;;;;;6134063;23;20304;-74
2023/09/12 05:01:51;;;;;;;2.60;2.25;;;;;;;;;;6098065;23;20072;-74
2023/09/12 05:04:17;;;;;;;1.80;1.70;;;;;;;;;;6134269;23;20106;-74
2023/09/12 05:06:43;;;;;;;1.85;1.55;;;;;;;;;;6124785;23;20002;-74
2023/09/12 05:09:10;;;;;;;2.40;1.83;;;;;;;;;;6134453;23;20036;-74
2023/09/12 05:11:37;;;;;;;2.08;1.92;;;;;;;;;;6134110;23;20009;-74
2023/09/12 05:14:06;;;;;;;2.00;1.80;;;;;;;;;;6134156;23;20461;-74
2023/09/12 05:16:32;;;;;;;2.45;1.77;;;;;;;;;;6124785;23;20062;-74
2023/09/12 05:18:58;;;;;;;2.47;2.13;;;;;;;;;;6124756;23;20338;-74
2023/09/12 05:21:24;;;;;;;2.78;2.03;;;;;;;;;;6134328;23;19994;-74
2023/09/12 05:23:50;;;;;;;3.33;1.92;;;;;;;;;;6109042;23;20068;-74
2023/09/12 05:26:16;;;;;;;1.95;1.85;;;;;;;;;;6134139;23;20025;-74
2023/09/12 05:28:42;;;;;;;1.63;1.52;;;;;;;;;;6133956;23;20053;-74
2023/09/12 05:31:08;;;;;;;1.70;1.58;;;;;;;;;;6134091;23;20005;-74
2023/09/12 05:33:34;;;;;;;1.67;1.58;;;;;;;;;;6134151;23;20016;-74
2023/09/12 05:36:00;;;;;;;2.03;1.52;;;;;;;;;;6134369;23;20321;-74
2023/09/12 05:38:26;;;;;;;3.42;2.25;;;;;;;;;;6134155;23;20005;-74
2023/09/12 05:40:53;;;;;;;2.00;1.80;;;;;;;;;;6133995;23;19994;-74
2023/09/12 05:43:19;;;;;;;1.98;1.88;;;;;;;;;;6135770;23;20002;-74
2023/09/12 05:45:45;;;;;;;2.85;2.30;;;;;;;;;;6126319;23;20362;-74
2023/09/12 05:48:11;;;;;;;2.08;1.83;;;;;;;;;;6135896;23;20010;-74
2023/09/12 05:50:37;;;;;;;1.48;1.38;;;27.50;60.40;;;;;;6135766;23;20425;-74
2023/09/12 05:53:03;;;;;;;2.65;2.03;;;;;;;;;;6136312;23;20010;-74
2023/09/12 05:55:29;;;;;;;2.20;2.03;;;;;;;;;;6135812;23;20012;-74
2023/09/12 05:57:55;;;;;;;2.08;1.90;;;;;;;;;;6099963;23;20516;-74
2023/09/12 06:00:21;;;;;;;3.22;1.73;;;;;;;;;;6135824;23;20081;-74
2023/09/12 06:02:47;;;;;;;1.90;1.80;;;;;;;;;;6135426;23;20025;-74
2023/09/12 06:05:14;;;;;;;2.00;1.70;;;;;;;;;;6135795;23;20078;-74
2023/09/12 06:07:40;;;;;;;2.25;1.73;;;;;;;;;;6125835;23;20078;-74
2023/09/12 06:10:07;;;;;;;1.67;1.55;;;27.50;60.30;;;;;;6126267;23;20002;-76
2023/09/12 06:12:35;;;;;;;1.98;1.80;;;;;;;;;;6131609;23;20022;-76
2023/09/12 06:15:04;;;;;;;1.73;1.63;;;27.50;62.90;;;;;;6126582;23;20009;-73
2023/09/12 06:17:30;;;;;;;2.30;2.13;;;;;;;;;;6125859;23;20052;-73
2023/09/12 06:19:56;;;;;;;1.80;1.70;;;;;;;;;;6135507;23;19998;-74
2023/09/12 06:22:22;;;;;;;1.90;1.80;;;;;;;;;;6135673;23;20009;-74
2023/09/12 06:24:49;;;;;;;1.80;1.70;;;;;;;;;;6135511;23;20432;-74
2023/09/12 06:27:21;;;;;;;1.85;1.55;;;;;;;;;;6099734;23;20429;-74
2023/09/12 06:29:50;;;;;;;2.17;1.77;;;;;;;;;;6125827;23;20002;-76
2023/09/12 06:32:17;;;;;;;1.67;1.58;;;27.40;63.40;;;;;;6135567;23;20489;-75
2023/09/12 06:34:43;;;;;;;2.03;1.92;;;;;;;;;;6135718;23;20430;-76
2023/09/12 06:37:11;;;;;;;2.35;2.15;;;27.40;63.70;;;;;;6135733;23;20036;-77
2023/09/12 06:39:37;;;;;;;2.00;1.90;;;;;;;;;;6136246;23;20049;-76
2023/09/12 06:42:03;;;;;;;3.00;2.67;;;;;;;;;;6126091;23;20006;-75
2023/09/12 06:44:29;;;;;;;2.60;2.40;;;;;;;;;;6126402;23;20149;-78
2023/09/12 06:46:55;;;;;;;2.50;2.30;;;;;;;;;;6135605;23;20001;-75
2023/09/12 06:49:21;;;;;;;2.13;1.83;;;;;;;;;;6135506;23;20025;-74
2023/09/12 06:51:47;;;;;;;2.45;2.25;;;;;;;;;;6135242;23;20080;-72
2023/09/12 06:54:14;;;;;;;2.83;2.50;;;;;;;;;;6134817;23;20002;-72
2023/09/12 06:56:42;;;;;;;3.75;2.55;;;;;;;;;;6125798;23;20081;-72
2023/09/12 06:59:09;;;;;;;2.67;2.47;;;;;;;;;;6125688;23;20366;-72
2023/09/12 07:01:36;;;;;;;2.75;2.50;;;;;;;;;;6125484;23;20006;-72
2023/09/12 07:04:03;;;;;;;3.20;2.30;;;;;;;;;;6125842;23;20005;-72
2023/09/12 07:06:30;;;;;;;4.10;2.58;;;;;;;;;;6125644;23;20082;-72
2023/09/12 07:08:56;;;;;;;3.17;2.67;;;;;;;;;;6126178;23;20080;-75
2023/09/12 07:11:24;;;;;;;2.53;1.98;;;;;;;;;;6125653;23;20303;-74
2023/09/12 07:13:50;;;;;;;3.00;2.60;;;;;;;;;;6125437;23;20071;-74
2023/09/12 07:16:17;;;;;;;2.70;2.50;;;;;;;;;;6125442;23;20009;-74
2023/09/12 07:18:43;;;;;;;3.17;2.50;;;;;;;;;;6125493;23;20022;-75
2023/09/12 07:21:12;;;;;;;3.25;2.75;;;;;;;;;;6125480;23;20002;-72
2023/09/12 07:23:38;;;;;;;2.30;2.10;;;;;;;;;;6124979;23;20006;-71
2023/09/12 07:26:05;;;;;;;4.18;2.28;;;;;;;;;;6125349;23;20002;-72
2023/09/12 07:28:31;;;;;;;2.72;2.53;;;;;;;;;;6125479;23;20006;-72
2023/09/12 07:30:58;;;;;;;2.75;2.50;;;;;;;;;;6125392;23;20002;-72
2023/09/12 07:33:25;;;;;;;3.05;2.85;;;;;;;;;;6125194;23;20073;-72
2023/09/12 07:35:54;;;;;;;4.03;3.58;;;27.30;58.90;;;;;;6125814;23;19998;-73
2023/09/12 07:38:21;;;;;;;5.25;4.28;;;27.30;65.00;;;;;;6124944;23;20002;-73
2023/09/12 07:40:48;;;;;;;4.72;3.70;;;;;;;;;;6124912;23;20039;-73
2023/09/12 07:43:13;;;;;;;6.20;4.63;;;;;;;;;;6134762;23;20056;-73
2023/09/12 07:45:39;;;;;;;6.60;5.25;;;;;;;;;;6134799;23;20082;-73
2023/09/12 07:48:11;;;;;;;6.63;5.40;;;27.30;59.80;;;;;;6134557;23;20049;-73
2023/09/12 07:50:38;;;;;;;8.07;5.78;;;;;;;;;;6134774;23;20021;-73
2023/09/12 07:53:05;;;;;;;6.50;5.80;;;;;;;;;;6134448;23;20013;-74
2023/09/12 07:55:35;;;;;;;6.05;5.47;;;;;;;;;;6134825;23;20322;-74
2023/09/12 07:58:01;;;;;;;11.75;5.75;;;;;;;;;;6125154;23;20362;-75
2023/09/12 08:00:27;;;;;;;8.30;6.88;;;;;;;;;;6134644;23;20036;-75
2023/09/12 08:02:53;;;;;;;8.27;6.50;;;;;;;;;;6134377;23;20018;-74
2023/09/12 08:05:19;;;;;;;7.30;6.55;;;;;;;;;;6135091;23;20020;-74
2023/09/12 08:07:46;;;;;;;8.68;7.53;;;;;;;;;;6124745;23;20002;-73
2023/09/12 08:10:13;;;;;;;9.10;7.93;;;;;;;;;;6124927;23;20442;-73
2023/09/12 08:12:40;;;;;;;11.70;7.13;;;;;;;;;;6124613;23;20066;-72
2023/09/12 08:15:07;;;;;;;7.47;6.65;;;;;;;;;;6125052;23;20366;-73
2023/09/12 08:17:33;;;;;;;8.52;7.30;;;;;;;;;;6125228;23;19998;-73
2023/09/12 08:20:00;;;;;;;8.48;7.38;;;;;;;;;;6125451;23;20006;-74
2023/09/12 08:22:26;;;;;;;9.23;8.25;;;;;;;;;;6124352;23;20002;-73
2023/09/12 08:24:53;;;;;;;8.65;7.85;;;;;;;;;;6124487;23;20006;-74
2023/09/12 08:27:20;;;;;;;9.38;7.85;;;;;;;;;;6124782;23;20002;-73
2023/09/12 08:29:48;;;;;;;8.75;7.95;;;;;;;;;;6124784;23;20097;-77
2023/09/12 08:32:14;;;;;;;9.40;8.48;;;;;;;;;;6124684;23;20010;-75
2023/09/12 08:34:41;;;;;;;11.02;9.90;;;;;;;;;;6125119;23;19998;-74
2023/09/12 08:37:07;;;;;;;9.50;8.23;;;;;;;;;;6124845;23;20017;-75
2023/09/12 08:39:44;;;;;;;11.40;10.13;;;27.30;60.50;;;;;;6124455;23;20006;-75
2023/09/12 08:42:16;;;;;;;13.27;10.25;;;27.30;60.60;;;;;;6124398;23;19998;-73
2023/09/12 08:44:43;;;;;;;11.32;10.20;;;;;;;;;;6124757;23;20002;-71
2023/09/12 08:47:10;;;;;;;11.25;9.27;;;;;;;;;;6125100;23;20057;-73
2023/09/12 08:49:37;;;;;;;12.27;10.77;;;;;;;;;;6125118;23;20008;-73
2023/09/12 08:52:04;;;;;;;11.75;10.05;;;27.30;66.10;;;;;;6125485;23;20002;-72
2023/09/12 08:54:31;;;;;;;12.70;10.85;;;27.30;66.50;;;;;;6124549;23;20005;-72
2023/09/12 08:56:58;;;;;;;12.30;11.10;;;;;;;;;;6124830;23;20002;-72
2023/09/12 08:59:25;;;;;;;12.18;10.77;;;27.30;64.20;;;;;;6124729;23;20024;-72
2023/09/12 09:01:52;;;;;;;11.38;10.18;;;;;;;;;;6124937;23;20018;-72
2023/09/12 09:04:19;;;;;;;11.77;10.63;;;27.30;66.00;;;;;;6124462;23;19998;-72
2023/09/12 09:06:46;;;;;;;12.23;10.95;;;27.30;65.30;;;;;;6125328;23;20497;-73
2023/09/12 09:09:13;;;;;;;13.75;12.27;;;27.30;66.20;;;;;;6124889;23;19998;-72
2023/09/12 09:11:40;;;;;;;11.35;10.30;;;;;;;;;;6125250;23;20069;-73
2023/09/12 09:14:06;;;;;;;12.32;11.23;;;;;;;;;;6124745;23;20438;-74
2023/09/12 09:16:33;;;;;;;13.02;11.68;;;;;;;;;;6125130;23;20013;-74
2023/09/12 09:19:06;;;;;;;12.73;11.52;;;27.30;66.70;;;;;;6126600;23;20106;-74
2023/09/12 09:21:33;;;;;;;12.85;11.52;;;27.30;63.60;;;;;;6126307;23;20018;-75
2023/09/12 09:24:07;;;;;;;12.60;11.52;;;27.40;65.60;;;;;;6126344;23;20004;-73
2023/09/12 09:26:51;;;;;;;12.93;11.68;;;27.40;59.80;;;;;;6126684;23;20002;-72
2023/09/12 09:29:21;;;;;;;13.13;11.82;;;27.60;59.70;;;;;;6126614;23;19998;-74
2023/09/12 09:31:49;;;;;;;13.88;12.55;;;27.50;65.70;;;;;;6126734;23;20001;-72
2023/09/12 09:34:17;;;;;;;13.68;12.30;;;27.50;65.60;;;;;;6126694;23;20501;-72
2023/09/12 09:36:46;;;;;;;13.32;11.95;;;27.50;63.70;;;;;;6126082;23;19997;-72
2023/09/12 09:39:13;;;;;;;14.43;13.00;;;28.10;64.00;;;;;;6126061;23;19994;-72
2023/09/12 09:41:40;;;;;;;14.60;13.13;;;;;;;;;;6126006;23;20508;-73
2023/09/12 09:44:09;;;;;;;12.13;11.02;;;27.50;60.30;;;;;;6126512;23;20339;-72
2023/09/12 09:46:37;;;;;;;14.35;12.88;;;27.60;65.80;;;;;;6126452;23;20002;-72
2023/09/12 09:49:06;;;;;;;13.68;12.27;;;;;;;;;;6126292;23;20013;-72
2023/09/12 09:51:32;;;;;;;13.02;11.63;;;;;;;;;;6126135;23;20322;-74
2023/09/12 09:54:00;;;;;;;14.18;12.75;;;;;;;;;;6126206;23;20013;-72
2023/09/12 09:56:26;;;;;;;14.88;13.35;;;;;;;;;;6135861;23;19994;-75
2023/09/12 09:58:54;;;;;;;14.20;12.80;;;27.80;65.80;;;;;;6136148;23;20021;-73
2023/09/12 10:01:22;;;;;;;14.40;13.00;;;27.80;65.70;;;;;;6135550;23;20006;-74
2023/09/12 10:03:49;;;;;;;15.25;13.75;;;27.90;66.00;;;;;;6135609;23;20433;-73
2023/09/12 10:06:17;;;;;;;15.73;14.13;;;27.80;66.00;;;;;;6135659;23;20001;-73
2023/09/12 10:08:46;;;;;;;15.63;13.98;;;27.80;66.40;;;;;;6135654;23;20002;-73
2023/09/12 10:11:15;;;;;;;16.27;14.60;;;27.90;66.30;;;;;;6126289;23;20048;-73
2023/09/12 10:13:59;;;;;;;17.15;14.68;;;27.80;66.50;;;;;;6125965;23;20456;-72
2023/09/12 10:16:48;;;;;;;16.67;14.23;;;27.80;60.60;;;;;;6125676;23;20430;-73
2023/09/12 10:19:15;;;;;;;15.57;13.95;;;;;;;;;;6125931;23;19998;-72
2023/09/12 10:22:02;;;;;;;16.58;14.88;;;28.00;60.90;;;;;;6125918;23;20073;-73
2023/09/12 10:24:29;;;;;;;15.50;13.90;;;28.00;64.00;;;;;;6125810;23;20328;-71
2023/09/12 10:26:56;;;;;;;14.68;13.27;;;28.00;63.60;;;;;;6126386;23;20006;-72
2023/09/12 10:29:23;;;;;;;16.77;15.07;;;;;;;;;;6125190;23;20002;-71
2023/09/12 10:31:50;;;;;;;16.77;15.10;;;;;;;;;;6125328;23;20001;-72
2023/09/12 10:34:16;;;;;;;16.80;14.27;;;;;;;;;;6125406;23;20010;-73
2023/09/12 10:36:43;;;;;;;15.75;14.25;;;;;;;;;;6125685;23;20330;-73
2023/09/12 10:39:11;;;;;;;16.50;14.80;;;28.10;67.60;;;;;;6125402;23;20022;-73
2023/09/12 10:41:39;;;;;;;17.25;15.43;;;28.10;67.60;;;;;;6125797;23;20006;-73
2023/09/12 10:44:26;;;;;;;17.50;15.68;;;28.10;67.70;;;;;;6125192;23;19994;-72
2023/09/12 10:46:56;;;;;;;17.15;15.45;;;;;;;;;;6125635;23;20045;-72
2023/09/12 10:49:22;;;;;;;18.45;16.45;;;;;;;;;;6125764;23;20029;-72
2023/09/12 10:51:49;;;;;;;17.05;15.25;;;28.20;68.00;;;;;;6125408;23;19998;-72
2023/09/12 10:54:35;;;;;;;17.23;15.43;;;28.20;67.80;;;;;;6125240;23;20441;-73
2023/09/12 10:57:14;;;;;;;17.63;15.90;;;28.30;62.20;;;;;;6126100;23;19998;-74
2023/09/12 10:59:58;;;;;;;17.00;15.27;;;28.30;61.80;;;;;;6125558;23;20105;-74
2023/09/12 11:02:35;;;;;;;17.83;15.57;;;28.40;61.70;;;;;;6125267;23;20022;-74
2023/09/12 11:05:28;;;;;;;17.52;15.68;;;28.50;61.60;;;;;;6125136;23;19998;-75
2023/09/12 11:07:59;;;;;;;16.15;14.63;;;28.60;61.60;;;;;;6125245;23;20002;-75
2023/09/12 11:10:26;;;;;;;17.98;16.17;;;28.60;67.20;;;;;;6125087;23;20342;-75
2023/09/12 11:12:56;;;;;;;16.98;15.23;;;28.60;66.90;;;;;;6125301;23;20077;-75
2023/09/12 11:15:23;;;;;;;;;;;28.70;67.40;;;;;;6125577;23;19998;-75
2023/09/12 11:17:59;;;;;;;16.27;14.68;;;28.70;66.70;;;;;;6125741;23;19932;-75
2023/09/12 11:20:25;;;;;;;16.63;15.00;;;;;;;;;;6125116;23;20081;-74
2023/09/12 11:22:53;;;;;;;17.75;15.88;;;;;;;;;;6125272;23;20026;-75
2023/09/12 11:25:25;;;;;;;17.45;15.60;;;28.60;60.90;;;;;;6125472;23;20005;-75
2023/09/12 11:27:52;;;;;;;17.73;15.70;;;;;;;;;;6125046;23;20010;-74
2023/09/12 11:30:18;;;;;;;17.02;15.23;;;;;;;;;;6134743;23;20033;-73
2023/09/12 11:32:46;;;;;;;16.30;14.65;;;28.60;66.90;;;;;;6134968;23;20014;-73
2023/09/12 11:35:14;;;;;;;19.42;16.17;;;28.60;66.80;;;;;;6135631;23;20092;-75
2023/09/12 11:37:40;;;;;;;17.02;15.23;;;;;;;;;;6125870;23;20028;-74
2023/09/12 11:40:12;;;;;;;19.02;16.17;;;28.60;61.00;;;;;;6125094;23;20029;-73
2023/09/12 11:42:42;;;;;;;17.77;15.93;;;28.70;60.80;;;;;;6125103;23;20016;-73
2023/09/12 11:45:11;;;;;;;;;;;28.70;67.80;;;;;;6125845;23;20341;-73
2023/09/12 11:47:43;;;;;;;15.98;14.38;;;28.80;60.60;;;;;;6125562;23;19905;-73
2023/09/12 11:50:25;;;;;;;16.77;15.07;;;28.90;66.50;;;;;;6124845;23;20033;-73
2023/09/12 11:53:11;;;;;;;16.77;14.65;;;28.90;66.30;;;;;;6135027;23;20084;-73
2023/09/12 11:55:45;;;;;;;17.65;15.85;;;28.90;60.70;;;;;;6124782;23;20002;-74
2023/09/12 11:58:14;;;;;;;16.85;15.13;;;29.00;66.50;;;;;;6124530;23;19998;-73
2023/09/12 12:00:52;;;;;;;18.15;15.85;;;29.00;60.80;;;;;;6124798;23;20056;-73
2023/09/12 12:03:20;;;;;;;15.25;13.65;;;28.90;66.50;;;;;;6124402;23;20028;-73
2023/09/12 12:05:47;;;;;;;16.80;15.00;;;;;;;;;;6124669;23;19994;-73
2023/09/12 12:08:15;;;;;;;16.95;14.95;;;29.10;65.30;;;;;;6124511;23;20056;-73
2023/09/12 12:10:41;;;;;;;16.30;14.70;;;;;;;;;;6124669;23;20544;-73
2023/09/12 12:13:17;;;;;;;15.82;13.82;;;29.30;59.80;;;;;;6124695;23;20018;-72
2023/09/12 12:15:43;;;;;;;14.48;12.98;;;;;;;;;;6125039;23;20060;-73
2023/09/12 12:18:10;;;;;;;18.20;13.80;;;;;;;;;;6134390;23;20576;-73
2023/09/12 12:20:36;;;;;;;16.63;14.35;;;;;;;;;;6124587;23;20056;-73
2023/09/12 12:23:03;;;;;;;14.88;13.25;;;;;;;;;;6124663;23;20013;-73
2023/09/12 12:25:33;;;;;;;15.10;13.52;;;29.60;65.10;;;;;;6124880;23;20430;-72
2023/09/12 12:28:00;;;;;;;15.43;13.30;;;;;;;;;;6124824;23;20057;-72
2023/09/12 12:30:31;;;;;;;14.70;13.20;;;29.70;65.30;;;;;;6124453;23;20069;-74
2023/09/12 12:32:57;;;;;;;14.93;13.32;;;;;;;;;;6124745;23;20080;-73
2023/09/12 12:35:24;;;;;;;14.35;12.93;;;;;;;;;;6124769;23;20380;-73
2023/09/12 12:37:53;;;;;;;12.50;11.40;;;29.30;64.00;;;;;;6124664;23;20081;-73
2023/09/12 12:40:20;;;;;;;13.97;12.57;;;;;;;;;;6099083;23;20037;-73
2023/09/12 12:42:47;;;;;;;13.80;12.40;;;;;;;;;;6124597;23;20760;-73
2023/09/12 12:45:15;;;;;;;13.63;12.25;;;29.60;66.20;;;;;;6124682;23;20053;-74
2023/09/12 12:47:41;;;;;;;13.32;11.93;;;;;;;;;;6124435;23;20073;-73
2023/09/12 12:50:12;;;;;;;12.82;11.05;;;29.60;60.20;;;;;;6124426;23;20021;-73
2023/09/12 12:52:42;;;;;;;13.10;11.80;;;29.60;66.20;;;;;;6124222;23;20061;-75
2023/09/12 12:55:12;;;;;;;13.43;11.80;;;29.50;60.40;;;;;;6124568;23;20002;-73
2023/09/12 12:57:43;;;;;;;12.73;11.50;;;29.50;60.60;;;;;;6124183;23;20437;-73
2023/09/12 13:00:17;;;;;;;12.15;11.05;;;29.50;66.30;;;;;;6124606;23;20303;-73
2023/09/12 13:02:44;;;;;;;12.82;11.57;;;;;;;;;;6123978;23;20010;-73
2023/09/12 13:05:28;;;;;;;13.65;12.10;;;29.60;60.40;;;;;;6124180;23;19998;-73
2023/09/12 13:07:54;;;;;;;13.38;12.00;;;;;;;;;;6124262;23;20425;-73
2023/09/12 13:10:22;;;;;;;12.00;10.77;;;29.50;63.30;;;;;;6124271;23;20002;-71
2023/09/12 13:12:48;;;;;;;12.68;11.40;;;;;;;;;;6124027;23;20010;-73
2023/09/12 13:15:15;;;;;;;12.10;10.98;;;29.60;64.10;;;;;;6124383;23;20030;-73
2023/09/12 13:17:42;;;;;;;13.30;10.73;;;;;;;;;;6125044;23;20002;-73
2023/09/12 13:20:09;;;;;;;12.23;11.00;;;;;;;;;;6124023;23;20010;-72
2023/09/12 13:22:36;;;;;;;10.50;9.50;;;;;;;;;;6124297;23;20002;-74
2023/09/12 13:25:03;;;;;;;11.20;10.20;;;;;;;;;;6123981;23;20518;-75
2023/09/12 13:27:29;;;;;;;12.35;11.05;;;;;;;;;;6124053;23;20013;-74
2023/09/12 13:29:56;;;;;;;10.02;9.13;;;;;;;;;;6124404;23;20010;-75
2023/09/12 13:32:22;;;;;;;11.45;10.30;;;;;;;;;;6123955;23;20446;-74
2023/09/12 13:34:50;;;;;;;11.48;10.10;;;;;;;;;;6124692;23;20053;-75
2023/09/12 13:37:18;;;;;;;10.73;9.73;;;;;;;;;;6124649;23;20002;-74
2023/09/12 13:39:51;;;;;;;11.32;10.13;;;;;;;;;;6124375;23;19999;-73
2023/09/12 13:42:20;;;;;;;11.32;10.23;;;;;;;;;;6124322;23;20377;-77
2023/09/12 13:44:47;;;;;;;11.43;10.07;;;;;;;;;;6124958;23;20085;-72
2023/09/12 13:47:21;;;;;;;11.13;10.02;;;;;;;;;;6124279;23;20005;-72
2023/09/12 13:49:47;;;;;;;10.60;9.30;;;;;;;;;;6123927;23;20445;-72
2023/09/12 13:52:14;;;;;;;11.32;10.23;;;;;;;;;;6124154;23;20062;-72
2023/09/12 13:54:41;;;;;;;12.18;10.88;;;;;;;;;;6124257;23;20070;-72
2023/09/12 13:57:07;;;;;;;11.50;10.30;;;;;;;;;;6124383;23;20037;-74
2023/09/12 13:59:33;;;;;;;12.18;10.82;;;;;;;;;;6133663;23;19998;-73
2023/09/12 14:02:00;;;;;;;12.90;10.82;;;;;;;;;;6123918;23;20018;-73